createdAt,value
2018-05-31T00:02:04.042Z,98072.83
2018-05-31T00:04:31.532Z,98069.67
2018-05-31T00:06:58.995Z,98074.10
2018-05-31T00:09:26.475Z,98067.12
2018-05-31T00:11:53.961Z,98059.88
2018-05-31T00:14:21.430Z,98071.08
2018-05-31T00:16:48.882Z,98073.78
2018-05-31T00:19:16.356Z,98093.04
2018-05-31T00:21:43.863Z,98097.58
2018-05-31T00:24:11.331Z,98100.82
2018-05-31T00:26:38.780Z,98100.82
2018-05-31T00:29:06.247Z,98103.48
2018-05-31T00:31:33.697Z,98111.16
2018-05-31T00:34:01.142Z,98107.66
2018-05-31T00:36:28.626Z,98104.59
2018-05-31T00:38:56.070Z,98103.37
2018-05-31T00:41:23.569Z,98100.16
2018-05-31T00:43:51.018Z,98093.71
2018-05-31T00:46:18.461Z,98087.69
2018-05-31T00:48:45.941Z,98092.69
2018-05-31T00:51:13.398Z,98093.16
2018-05-31T00:53:40.945Z,98094.19
2018-05-31T00:56:17.266Z,98090.06
2018-05-31T00:58:44.737Z,98103.52
2018-05-31T01:01:12.201Z,98092.93
2018-05-31T01:03:39.661Z,98094.80
2018-05-31T01:06:07.149Z,98085.64
2018-05-31T01:08:34.805Z,98079.27
2018-05-31T01:11:02.265Z,98077.93
2018-05-31T01:13:29.729Z,98081.88
2018-05-31T01:15:57.289Z,98077.67
2018-05-31T01:18:24.778Z,98080.15
2018-05-31T01:20:52.293Z,98069.04
2018-05-31T01:23:19.766Z,98068.75
2018-05-31T01:25:47.230Z,98068.38
2018-05-31T01:28:14.697Z,98070.97
2018-05-31T01:30:42.194Z,98072.55
2018-05-31T01:33:09.645Z,98067.89
2018-05-31T01:35:37.134Z,98071.42
2018-05-31T01:38:16.360Z,98060.31
2018-05-31T01:40:43.811Z,98059.58
2018-05-31T01:43:11.284Z,98052.53
2018-05-31T01:45:38.930Z,98049.64
2018-05-31T01:48:06.385Z,98051.23
2018-05-31T01:50:33.848Z,98054.64
2018-05-31T01:53:01.322Z,98050.81
2018-05-31T01:55:28.808Z,98059.38
2018-05-31T01:57:56.305Z,98060.75
2018-05-31T02:00:23.757Z,98062.64
2018-05-31T02:02:52.331Z,98060.59
2018-05-31T02:05:19.830Z,98059.84
2018-05-31T02:07:47.310Z,98061.00
2018-05-31T02:10:14.758Z,98052.45
2018-05-31T02:12:42.234Z,98056.03
2018-05-31T02:15:09.677Z,98056.08
2018-05-31T02:17:42.075Z,98052.25
2018-05-31T02:20:09.992Z,98056.35
2018-05-31T02:22:37.629Z,98049.41
2018-05-31T02:25:05.160Z,98054.02
2018-05-31T02:27:32.629Z,98058.62
2018-05-31T02:30:00.112Z,98053.86
2018-05-31T02:32:27.569Z,98056.77
2018-05-31T02:34:55.027Z,98052.28
2018-05-31T02:37:22.514Z,98058.42
2018-05-31T02:39:50.066Z,98061.91
2018-05-31T02:42:17.517Z,98053.19
2018-05-31T02:44:45.034Z,98050.27
2018-05-31T02:47:12.473Z,98053.79
2018-05-31T02:49:39.928Z,98055.60
2018-05-31T02:52:07.455Z,98054.55
2018-05-31T02:54:34.920Z,98065.10
2018-05-31T02:57:02.416Z,98070.28
2018-05-31T02:59:29.896Z,98068.17
2018-05-31T03:01:57.358Z,98072.43
2018-05-31T03:04:24.833Z,98072.58
2018-05-31T03:06:52.292Z,98069.92
2018-05-31T03:09:19.735Z,98069.23
2018-05-31T03:11:47.205Z,98070.06
2018-05-31T03:14:14.683Z,98074.25
2018-05-31T03:16:42.170Z,98060.73
2018-05-31T03:19:09.678Z,98065.86
2018-05-31T03:21:37.186Z,98072.09
2018-05-31T03:24:04.645Z,98078.78
2018-05-31T03:26:32.177Z,98080.93
2018-05-31T03:28:59.650Z,98080.83
2018-05-31T03:31:27.455Z,98083.52
2018-05-31T03:33:54.947Z,98083.58
2018-05-31T03:36:22.493Z,98091.75
2018-05-31T03:38:49.955Z,98093.06
2018-05-31T03:41:17.418Z,98090.86
2018-05-31T03:43:44.873Z,98103.14
2018-05-31T03:46:12.340Z,98099.08
2018-05-31T03:48:39.843Z,98092.38
2018-05-31T03:51:07.329Z,98093.44
2018-05-31T03:53:34.780Z,98087.11
2018-05-31T03:56:02.255Z,98095.03
2018-05-31T03:58:29.721Z,98099.42
2018-05-31T04:00:57.185Z,98097.55
2018-05-31T04:03:24.669Z,98094.16
2018-05-31T04:05:52.169Z,98087.87
2018-05-31T04:08:19.637Z,98089.52
2018-05-31T04:10:47.087Z,98086.50
2018-05-31T04:13:14.554Z,98089.03
2018-05-31T04:15:42.030Z,98087.95
2018-05-31T04:18:09.561Z,98095.72
2018-05-31T04:20:37.053Z,98096.70
2018-05-31T04:23:04.501Z,98095.44
2018-05-31T04:25:31.998Z,98090.64
2018-05-31T04:27:59.485Z,98093.92
2018-05-31T04:30:26.947Z,98105.03
2018-05-31T04:32:54.385Z,98099.02
2018-05-31T04:35:21.846Z,98099.11
2018-05-31T04:37:49.351Z,98095.29
2018-05-31T04:40:16.833Z,98105.66
2018-05-31T04:42:44.333Z,98105.83
2018-05-31T04:45:11.799Z,98104.52
2018-05-31T04:47:39.249Z,98103.21
2018-05-31T04:50:06.715Z,98113.73
2018-05-31T04:52:34.163Z,98115.53
2018-05-31T04:55:01.630Z,98115.98
2018-05-31T04:57:29.083Z,98114.86
2018-05-31T04:59:56.520Z,98111.05
2018-05-31T05:02:23.990Z,98120.45
2018-05-31T05:04:51.456Z,98125.98
2018-05-31T05:07:18.924Z,98121.28
2018-05-31T05:09:46.413Z,98115.52
2018-05-31T05:12:13.879Z,98112.17
2018-05-31T05:14:41.353Z,98114.75
2018-05-31T05:17:08.817Z,98111.14
2018-05-31T05:19:36.284Z,98100.66
2018-05-31T05:22:03.760Z,98113.55
2018-05-31T05:24:31.241Z,98121.81
2018-05-31T05:26:58.695Z,98120.99
2018-05-31T05:29:26.165Z,98121.20
2018-05-31T05:31:53.640Z,98125.25
2018-05-31T05:34:21.103Z,98119.07
2018-05-31T05:36:48.606Z,98119.61
2018-05-31T05:39:16.074Z,98119.53
2018-05-31T05:41:43.548Z,98116.47
2018-05-31T05:44:11.030Z,98117.43
2018-05-31T05:46:38.534Z,98126.61
2018-05-31T05:49:06.008Z,98125.69
2018-05-31T05:51:33.464Z,98127.38
2018-05-31T05:54:01.026Z,98118.23
2018-05-31T05:56:28.533Z,98122.45
2018-05-31T05:58:55.933Z,98124.52
2018-05-31T06:01:23.409Z,98124.41
2018-05-31T06:03:50.876Z,98120.19
2018-05-31T06:06:18.338Z,98122.34
2018-05-31T06:08:45.844Z,98123.35
2018-05-31T06:11:13.314Z,98126.37
2018-05-31T06:13:40.802Z,98134.83
2018-05-31T06:16:08.272Z,98137.83
2018-05-31T06:18:35.719Z,98135.70
2018-05-31T06:21:03.195Z,98145.85
2018-05-31T06:23:30.691Z,98145.78
2018-05-31T06:25:58.167Z,98141.12
2018-05-31T06:28:25.649Z,98146.36
2018-05-31T06:30:53.121Z,98147.16
2018-05-31T06:33:20.592Z,98150.44
2018-05-31T06:35:48.059Z,98154.97
2018-05-31T06:38:15.533Z,98154.09
2018-05-31T06:40:42.981Z,98156.97
2018-05-31T06:43:10.453Z,98152.03
2018-05-31T06:45:37.916Z,98159.66
2018-05-31T06:48:05.357Z,98157.66
2018-05-31T06:50:32.829Z,98162.82
2018-05-31T06:53:00.305Z,98163.59
2018-05-31T06:55:27.783Z,98162.45
2018-05-31T06:57:55.233Z,98168.05
2018-05-31T07:00:22.702Z,98167.54
2018-05-31T07:02:50.797Z,98167.83
2018-05-31T07:05:18.241Z,98160.52
2018-05-31T07:07:45.713Z,98165.47
2018-05-31T07:10:13.217Z,98168.70
2018-05-31T07:12:40.737Z,98164.33
2018-05-31T07:15:08.180Z,98170.62
2018-05-31T07:17:35.648Z,98169.09
2018-05-31T07:20:03.106Z,98165.64
2018-05-31T07:22:30.579Z,98162.39
2018-05-31T07:24:58.042Z,98165.48
2018-05-31T07:27:25.508Z,98164.14
2018-05-31T07:29:53.094Z,98167.02
2018-05-31T07:32:20.538Z,98174.67
2018-05-31T07:34:48.015Z,98166.16
2018-05-31T07:37:15.473Z,98163.25
2018-05-31T07:39:43.028Z,98168.23
2018-05-31T07:42:10.524Z,98162.49
2018-05-31T07:44:37.964Z,98160.17
2018-05-31T07:47:05.424Z,98163.95
2018-05-31T07:49:32.909Z,98165.58
2018-05-31T07:52:00.422Z,98166.94
2018-05-31T07:54:27.883Z,98169.67
2018-05-31T07:56:55.401Z,98169.36
2018-05-31T07:59:22.918Z,98161.82
2018-05-31T08:01:50.407Z,98166.02
2018-05-31T08:04:17.859Z,98169.61
2018-05-31T08:06:45.344Z,98173.06
2018-05-31T08:09:12.811Z,98175.75
2018-05-31T08:11:40.244Z,98176.41
2018-05-31T08:14:07.746Z,98172.07
2018-05-31T08:16:35.285Z,98174.25
2018-05-31T08:19:02.763Z,98171.64
2018-05-31T08:21:30.301Z,98174.83
2018-05-31T08:23:57.779Z,98176.34
2018-05-31T08:26:25.232Z,98174.77
2018-05-31T08:28:52.682Z,98176.09
2018-05-31T08:31:20.164Z,98170.36
2018-05-31T08:33:47.620Z,98165.61
2018-05-31T08:36:15.086Z,98172.95
2018-05-31T08:38:42.553Z,98171.65
2018-05-31T08:41:09.998Z,98167.59
2018-05-31T08:43:37.504Z,98168.12
2018-05-31T08:46:04.959Z,98165.27
2018-05-31T08:48:32.469Z,98168.80
2018-05-31T08:50:59.959Z,98174.23
2018-05-31T08:53:27.430Z,98171.08
2018-05-31T08:55:54.889Z,98172.81
2018-05-31T08:58:22.781Z,98173.77
2018-05-31T09:00:50.235Z,98184.56
2018-05-31T09:03:17.773Z,98179.02
2018-05-31T09:05:45.213Z,98182.98
2018-05-31T09:08:12.681Z,98182.90
2018-05-31T09:10:40.174Z,98184.52
2018-05-31T09:13:07.732Z,98183.28
2018-05-31T09:15:35.185Z,98177.72
2018-05-31T09:18:02.642Z,98172.58
2018-05-31T09:20:30.102Z,98174.70
2018-05-31T09:22:57.623Z,98176.93
2018-05-31T09:25:25.074Z,98171.56
2018-05-31T09:27:52.661Z,98167.72
2018-05-31T09:30:20.154Z,98169.95
2018-05-31T09:32:47.636Z,98171.98
2018-05-31T09:35:15.079Z,98172.00
2018-05-31T09:37:42.548Z,98169.00
2018-05-31T09:40:10.145Z,98171.84
2018-05-31T09:42:37.947Z,98167.64
2018-05-31T09:45:05.467Z,98169.23
2018-05-31T09:47:32.957Z,98160.94
2018-05-31T09:50:00.507Z,98167.10
2018-05-31T09:52:27.977Z,98161.84
2018-05-31T09:54:55.430Z,98163.41
2018-05-31T09:57:22.919Z,98162.09
2018-05-31T09:59:50.397Z,98160.21
2018-05-31T10:02:17.839Z,98156.34
2018-05-31T10:04:45.286Z,98159.86
2018-05-31T10:07:12.722Z,98165.03
2018-05-31T10:09:40.224Z,98163.34
2018-05-31T10:12:08.512Z,98160.96
2018-05-31T10:14:35.966Z,98154.39
2018-05-31T10:17:03.413Z,98153.09
2018-05-31T10:19:30.887Z,98149.23
2018-05-31T10:21:58.321Z,98151.94
2018-05-31T10:24:25.770Z,98148.39
2018-05-31T10:26:53.237Z,98149.30
2018-05-31T10:29:20.694Z,98153.07
2018-05-31T10:31:48.480Z,98151.01
2018-05-31T10:34:15.978Z,98157.67
2018-05-31T10:36:43.488Z,98150.57
2018-05-31T10:39:11.198Z,98147.66
2018-05-31T10:41:38.682Z,98144.44
2018-05-31T10:44:06.163Z,98144.30
2018-05-31T10:46:33.643Z,98142.53
2018-05-31T10:49:01.071Z,98141.91
2018-05-31T10:51:28.533Z,98132.14
2018-05-31T10:53:56.025Z,98141.41
2018-05-31T10:56:23.505Z,98139.81
2018-05-31T10:58:50.994Z,98135.58
2018-05-31T11:01:18.505Z,98138.44
2018-05-31T11:03:46.144Z,98138.13
2018-05-31T11:06:13.625Z,98125.85
2018-05-31T11:08:41.125Z,98126.15
2018-05-31T11:11:08.598Z,98130.34
2018-05-31T11:13:36.042Z,98131.41
2018-05-31T11:16:03.496Z,98124.64
2018-05-31T11:18:30.990Z,98131.34
2018-05-31T11:20:58.443Z,98124.67
2018-05-31T11:23:25.889Z,98127.81
2018-05-31T11:25:53.367Z,98126.40
2018-05-31T11:28:20.926Z,98128.06
2018-05-31T11:30:48.401Z,98129.53
2018-05-31T11:33:15.928Z,98129.25
2018-05-31T11:35:43.375Z,98131.72
2018-05-31T11:38:10.845Z,98126.82
2018-05-31T11:40:38.272Z,98115.72
2018-05-31T11:43:05.729Z,98109.00
2018-05-31T11:45:33.201Z,98109.55
2018-05-31T11:48:00.674Z,98107.22
2018-05-31T11:50:28.169Z,98099.94
2018-05-31T11:52:55.629Z,98106.47
2018-05-31T11:55:23.088Z,98109.68
2018-05-31T11:57:50.564Z,98102.39
2018-05-31T12:00:18.028Z,98098.05
2018-05-31T12:02:45.488Z,98098.36
2018-05-31T12:05:13.042Z,98097.83
2018-05-31T12:07:40.547Z,98100.66
2018-05-31T12:10:08.008Z,98096.98
2018-05-31T12:12:35.533Z,98099.70
2018-05-31T12:15:03.004Z,98094.44
2018-05-31T12:17:30.500Z,98094.50
2018-05-31T12:19:57.942Z,98092.20
2018-05-31T12:22:25.436Z,98089.44
2018-05-31T12:24:52.912Z,98093.00
2018-05-31T12:27:20.359Z,98087.89
2018-05-31T12:29:47.824Z,98096.61
2018-05-31T12:32:15.296Z,98094.50
2018-05-31T12:34:42.776Z,98087.90
2018-05-31T12:37:10.223Z,98091.99
2018-05-31T12:39:37.793Z,98082.91
2018-05-31T12:42:05.248Z,98077.21
2018-05-31T12:44:32.860Z,98086.30
2018-05-31T12:47:00.384Z,98080.05
2018-05-31T12:49:27.890Z,98070.22
2018-05-31T12:51:55.381Z,98066.89
2018-05-31T12:54:22.855Z,98067.27
2018-05-31T12:56:50.405Z,98061.16
2018-05-31T12:59:17.961Z,98053.02
2018-05-31T13:01:45.418Z,98054.59
2018-05-31T13:06:45.031Z,98052.41
2018-05-31T13:09:12.485Z,98048.50
2018-05-31T13:11:39.921Z,98052.92
2018-05-31T13:14:07.379Z,98050.42
2018-05-31T13:16:34.895Z,98050.30
2018-05-31T13:19:02.338Z,98045.51
2018-05-31T13:21:29.817Z,98043.29
2018-05-31T13:23:57.325Z,98041.34
2018-05-31T13:26:24.792Z,98037.86
2018-05-31T13:28:52.282Z,98037.71
2018-05-31T13:31:19.722Z,98029.25
2018-05-31T13:33:47.161Z,98028.13
2018-05-31T13:36:14.605Z,98017.55
2018-05-31T13:38:42.115Z,98009.84
2018-05-31T13:41:09.563Z,98013.83
2018-05-31T13:43:37.021Z,98008.72
2018-05-31T13:46:04.469Z,98014.32
2018-05-31T13:48:31.927Z,98014.77
2018-05-31T13:50:59.384Z,98019.63
2018-05-31T13:53:26.816Z,98026.13
2018-05-31T13:55:54.255Z,98025.58
2018-05-31T13:58:21.729Z,98027.62
2018-05-31T14:00:49.376Z,98018.09
2018-05-31T14:03:16.864Z,98016.67
2018-05-31T14:05:44.321Z,98016.16
2018-05-31T14:08:11.757Z,98024.47
2018-05-31T14:10:39.240Z,98036.55
2018-05-31T14:13:06.682Z,98023.34
2018-05-31T14:15:34.118Z,98033.70
2018-05-31T14:18:01.576Z,98034.57
2018-05-31T14:20:29.028Z,98036.06
2018-05-31T14:22:56.490Z,98041.59
2018-05-31T14:25:23.948Z,98036.05
2018-05-31T14:27:51.382Z,98049.02
2018-05-31T14:30:18.855Z,98048.55
2018-05-31T14:32:46.302Z,98048.46
2018-05-31T14:35:13.759Z,98048.58
2018-05-31T14:37:41.234Z,98029.16
2018-05-31T14:40:08.675Z,98038.45
2018-05-31T14:42:36.157Z,98034.11
2018-05-31T14:45:03.610Z,98037.75
2018-05-31T14:47:31.076Z,98029.61
2018-05-31T14:49:58.569Z,98039.66
2018-05-31T14:52:26.021Z,98039.94
2018-05-31T14:54:53.495Z,98031.77
2018-05-31T14:57:20.928Z,98037.89
2018-05-31T14:59:48.455Z,98038.55
2018-05-31T15:02:15.905Z,98040.58
2018-05-31T15:04:43.360Z,98037.47
2018-05-31T15:07:10.804Z,98038.47
2018-05-31T15:09:38.228Z,98033.80
2018-05-31T15:12:05.701Z,98036.89
2018-05-31T15:14:33.155Z,98039.74
2018-05-31T15:17:00.702Z,98039.15
2018-05-31T15:19:28.144Z,98037.61
2018-05-31T15:21:55.621Z,98032.13
2018-05-31T15:24:23.119Z,98023.27
2018-05-31T15:26:50.566Z,98027.56
2018-05-31T15:29:18.000Z,98015.39
2018-05-31T15:31:45.477Z,98023.34
2018-05-31T15:34:12.961Z,98032.23
2018-05-31T15:36:40.444Z,98033.13
2018-05-31T15:39:07.952Z,98026.91
2018-05-31T15:41:35.429Z,98042.02
2018-05-31T15:44:02.906Z,98029.69
2018-05-31T15:46:30.410Z,98028.75
2018-05-31T15:48:57.838Z,98029.58
2018-05-31T15:51:25.329Z,98028.31
2018-05-31T15:53:52.806Z,98020.78
2018-05-31T15:56:20.284Z,98030.30
2018-05-31T15:58:47.722Z,98026.13
2018-05-31T16:01:15.226Z,98027.23
2018-05-31T16:03:42.785Z,98017.78
2018-05-31T16:06:10.343Z,98016.90
2018-05-31T16:08:37.797Z,98016.99
2018-05-31T16:11:05.281Z,98019.20
2018-05-31T16:13:32.730Z,98008.16
2018-05-31T16:16:00.314Z,97998.08
2018-05-31T16:18:27.777Z,98000.58
2018-05-31T16:20:55.236Z,98002.90
2018-05-31T16:23:22.731Z,97999.22
2018-05-31T16:25:50.183Z,98005.17
2018-05-31T16:28:17.739Z,98013.05
2018-05-31T16:30:45.204Z,98027.77
2018-05-31T16:33:12.677Z,98020.43
2018-05-31T16:35:40.244Z,98025.91
2018-05-31T16:38:07.813Z,98034.38
2018-05-31T16:40:35.309Z,98029.00
2018-05-31T16:43:02.756Z,98030.85
2018-05-31T16:45:30.237Z,98029.38
2018-05-31T16:47:57.729Z,98025.84
2018-05-31T16:50:25.194Z,98012.33
2018-05-31T16:52:52.737Z,98010.59
2018-05-31T16:55:20.241Z,98004.41
2018-05-31T16:57:47.725Z,98005.95
2018-05-31T17:00:15.196Z,98006.20
2018-05-31T17:02:42.696Z,97989.39
2018-05-31T17:05:10.237Z,97986.92
2018-05-31T17:07:37.774Z,97982.81
2018-05-31T17:10:05.209Z,97977.86
2018-05-31T17:12:32.653Z,97983.77
2018-05-31T17:15:00.183Z,97976.63
2018-05-31T17:17:27.628Z,97973.35
2018-05-31T17:19:55.174Z,97963.93
2018-05-31T17:22:22.655Z,97961.53
2018-05-31T17:24:50.115Z,97959.68
2018-05-31T17:27:17.595Z,97969.73
2018-05-31T17:29:45.069Z,97963.23
2018-05-31T17:32:12.523Z,97979.42
2018-05-31T17:34:40.012Z,97981.80
2018-05-31T17:37:07.452Z,97988.47
2018-05-31T17:39:34.886Z,98001.75
2018-05-31T17:42:02.370Z,98006.92
2018-05-31T17:44:29.842Z,98021.77
2018-05-31T17:46:57.376Z,98030.50
2018-05-31T17:49:24.838Z,98031.94
2018-05-31T17:51:52.289Z,98038.83
2018-05-31T17:54:19.741Z,98042.84
2018-05-31T17:56:47.224Z,98022.61
2018-05-31T17:59:14.665Z,98022.33
2018-05-31T18:01:42.138Z,98020.42
2018-05-31T18:04:09.612Z,98012.62
2018-05-31T18:06:37.067Z,98014.72
2018-05-31T18:09:05.118Z,98009.80
2018-05-31T18:11:32.575Z,98007.72
2018-05-31T18:14:00.047Z,98009.11
2018-05-31T18:16:27.516Z,98013.98
2018-05-31T18:18:55.097Z,98020.24
2018-05-31T18:21:22.560Z,98023.57
2018-05-31T18:23:50.049Z,98026.66
2018-05-31T18:26:17.551Z,98030.66
2018-05-31T18:28:45.003Z,98029.38
2018-05-31T18:31:12.544Z,98039.89
2018-05-31T18:33:40.010Z,98047.36
2018-05-31T18:36:07.484Z,98055.28
2018-05-31T18:38:35.050Z,98060.31
2018-05-31T18:41:02.496Z,98068.38
2018-05-31T18:43:30.060Z,98075.55
2018-05-31T18:45:57.521Z,98072.25
2018-05-31T18:48:25.057Z,98073.40
2018-05-31T18:50:52.636Z,98072.47
2018-05-31T18:53:20.069Z,98070.41
2018-05-31T18:55:47.519Z,98069.74
2018-05-31T18:58:14.954Z,98066.59
2018-05-31T19:00:43.085Z,98066.03
2018-05-31T19:03:10.585Z,98064.10
2018-05-31T19:05:38.062Z,98065.80
2018-05-31T19:08:05.551Z,98065.22
2018-05-31T19:10:33.052Z,98062.88
2018-05-31T19:13:06.145Z,98058.84
2018-05-31T19:15:33.647Z,98054.88
2018-05-31T19:18:01.115Z,98063.91
2018-05-31T19:20:30.205Z,98064.92
2018-05-31T19:22:57.668Z,98063.17
2018-05-31T19:25:25.124Z,98052.27
2018-05-31T19:27:52.563Z,98048.33
2018-05-31T19:30:25.741Z,98038.06
2018-05-31T19:32:53.204Z,98036.29
2018-05-31T19:35:26.395Z,98027.63
2018-05-31T19:37:53.892Z,98032.59
2018-05-31T19:40:21.374Z,98033.13
2018-05-31T19:42:54.551Z,98031.15
2018-05-31T19:45:22.002Z,98030.05
2018-05-31T19:47:49.477Z,98049.13
2018-05-31T19:50:16.955Z,98055.09
2018-05-31T19:52:50.108Z,98058.02
2018-05-31T19:55:17.666Z,98069.98
2018-05-31T19:57:50.934Z,98063.92
2018-05-31T20:00:24.091Z,98063.40
2018-05-31T20:02:57.086Z,98069.52
2018-05-31T20:05:24.909Z,98075.52
2018-05-31T20:07:52.345Z,98077.41
2018-05-31T20:10:19.841Z,98082.92
2018-05-31T20:12:47.287Z,98091.50
2018-05-31T20:15:14.730Z,98102.89
2018-05-31T20:17:42.180Z,98097.45
2018-05-31T20:20:09.687Z,98104.09
2018-05-31T20:22:37.146Z,98100.16
2018-05-31T20:25:04.614Z,98091.53
2018-05-31T20:27:32.309Z,98089.84
2018-05-31T20:29:59.800Z,98093.96
2018-05-31T20:32:27.337Z,98080.61
2018-05-31T20:34:54.937Z,98079.17
2018-05-31T20:37:22.431Z,98080.52
2018-05-31T20:39:49.892Z,98073.17
2018-05-31T20:42:17.339Z,98078.86
2018-05-31T20:44:44.813Z,98083.52
2018-05-31T20:47:12.284Z,98089.55
2018-05-31T20:49:39.755Z,98092.59
2018-05-31T20:52:07.429Z,98091.78
2018-05-31T20:54:34.874Z,98089.88
2018-05-31T20:57:02.459Z,98088.05
2018-05-31T20:59:29.954Z,98080.44
2018-05-31T21:01:57.406Z,98075.31
2018-05-31T21:04:24.884Z,98058.11
2018-05-31T21:06:52.342Z,98048.22
2018-05-31T21:09:19.803Z,98045.53
2018-05-31T21:11:47.346Z,98047.62
2018-05-31T21:14:14.783Z,98037.39
2018-05-31T21:16:43.093Z,98030.39
2018-05-31T21:19:10.576Z,98027.03
2018-05-31T21:21:38.108Z,98029.72
2018-05-31T21:24:05.680Z,98045.84
2018-05-31T21:26:33.137Z,98046.97
2018-05-31T21:29:02.471Z,98053.76
2018-05-31T21:31:31.963Z,98059.38
2018-05-31T21:33:59.539Z,98066.07
2018-05-31T21:36:27.105Z,98062.94
2018-05-31T21:38:54.537Z,98054.98
2018-05-31T21:41:21.992Z,98060.81
2018-05-31T21:43:50.292Z,98074.70
2018-05-31T21:46:18.288Z,98074.38
2018-05-31T21:48:45.965Z,98064.91
2018-05-31T21:51:13.456Z,98047.50
2018-05-31T21:53:44.361Z,98055.27
2018-05-31T21:56:12.107Z,98063.84
2018-05-31T21:58:40.662Z,98065.37
2018-05-31T22:01:08.238Z,98083.23
2018-05-31T22:03:36.802Z,98083.20
2018-05-31T22:06:04.302Z,98080.97
2018-05-31T22:08:31.765Z,98108.67
2018-05-31T22:10:59.310Z,98128.16
2018-05-31T22:13:27.727Z,98136.25
2018-05-31T22:15:56.416Z,98141.42
2018-05-31T22:18:23.955Z,98156.35
2018-05-31T22:20:53.650Z,98165.99
2018-05-31T22:23:22.301Z,98223.52
2018-05-31T22:25:49.777Z,98250.80
2018-05-31T22:28:18.480Z,98271.13
2018-05-31T22:30:46.292Z,98267.29
2018-05-31T22:33:14.027Z,98287.80
2018-05-31T22:35:44.060Z,98324.83
2018-05-31T22:38:12.742Z,98308.52
2018-05-31T22:40:41.877Z,98301.46
2018-05-31T22:43:09.479Z,98307.28
2018-05-31T22:45:38.173Z,98318.67
2018-05-31T22:48:06.421Z,98306.38
2018-05-31T22:50:34.435Z,98321.82
2018-05-31T22:53:02.067Z,98330.95
2018-05-31T22:55:29.629Z,98336.19
2018-05-31T22:57:57.138Z,98353.44
2018-05-31T23:00:24.772Z,98359.32
2018-05-31T23:02:54.095Z,98357.83
2018-05-31T23:05:22.739Z,98379.33
2018-05-31T23:07:51.401Z,98388.27
2018-05-31T23:10:18.983Z,98390.73
2018-05-31T23:12:46.431Z,98391.41
2018-05-31T23:15:13.959Z,98397.88
2018-05-31T23:17:41.423Z,98403.03
2018-05-31T23:20:08.901Z,98402.36
2018-05-31T23:22:37.037Z,98385.23
2018-05-31T23:25:05.367Z,98368.33
2018-05-31T23:27:33.583Z,98356.91
2018-05-31T23:30:01.332Z,98390.37
2018-05-31T23:32:28.971Z,98411.17
2018-05-31T23:34:56.926Z,98430.13
2018-05-31T23:37:24.606Z,98416.21
2018-05-31T23:39:52.130Z,98411.66
2018-05-31T23:42:19.735Z,98414.20
2018-05-31T23:44:47.205Z,98413.30
2018-05-31T23:47:16.124Z,98402.13
2018-05-31T23:49:43.797Z,98394.28
2018-05-31T23:52:11.246Z,98400.64
2018-05-31T23:54:38.700Z,98389.53
2018-05-31T23:57:06.278Z,98392.82
2018-05-31T23:59:33.718Z,98393.33
